KLRJ/LRJ METAR and TAF weather

Enter ICAO airport designator
Station Type Date Time Source
KLRJ METAR 2019/06/26 15:55 UTC NOAA

KLRJ 261555Z AUTO VRB04KT 10SM CLR 23/17 A2999 RMK AO2


Station Type Date Time Source
KLRJ Decoded METAR 2019/06/26 15:55 UTC NOAA

Le Mars, Le Mars Municipal Airport, IA, United States (KLRJ) 42-46-41N 096-11-37W
Jun 26, 2019 - 11:55 AM EDT / 2019.06.26 1555 UTC
Wind: Variable at 5 MPH (4 KT):0
Visibility: 10 mile(s):0
Sky conditions: clear
Temperature: 73 F (23 C)
Dew Point: 62 F (17 C)
Relative Humidity: 68%
Pressure (altimeter): 29.99 in. Hg (1015 hPa)
ob: KLRJ 261555Z AUTO VRB04KT 10SM CLR 23/17 A2999 RMK AO2
cycle: 16

Station Type Date Time Source
KLRJ TAF UTC NOAA

Error!

Example: see airport list